Time;durP1;ratioP1;P1;durP2;ratioP2;P2;SDS_P1;SDS_P2;PMS_P1;PMS_P2;Temp;Humidity;BMP_temperature;BMP_pressure;BME280_temperature;BME280_humidity;BME280_pressure;Samples;Min_cycle;Max_cycle;Signal;HPM_P1;HPM_P2
2023/08/01 00:01:57;;;;;;;4.57;2.30;;;;;;;;;;5060987;28;20450;-77
2023/08/01 00:04:25;;;;;;;4.93;1.90;;;;;;;;;;5057947;28;20534;-77
2023/08/01 00:06:52;;;;;;;3.27;1.80;;;;;;;;;;5059795;28;20515;-77
2023/08/01 00:09:20;;;;;;;2.33;1.03;;;;;;;;;;5059665;28;20514;-77
2023/08/01 00:11:48;;;;;;;2.10;0.90;;;;;;;;;;5058398;28;20544;-77
2023/08/01 00:14:20;;;;;;;2.50;1.20;;;;;;;;;;5060025;28;20515;-77
2023/08/01 00:16:51;;;;;;;2.07;0.90;;;;;;;;;;5058957;28;20514;-78
2023/08/01 00:19:21;;;;;;;2.30;1.00;;;;;;;;;;5062965;28;20461;-78
2023/08/01 00:21:48;;;;;;;2.40;1.23;;;;;;;;;;5063433;28;20449;-78
2023/08/01 00:24:17;;;;;;;5.20;1.23;;;;;;;;;;5063614;28;20511;-77
2023/08/01 00:26:44;;;;;;;2.50;1.00;;;;;;;;;;5064547;28;20453;-78
2023/08/01 00:29:14;;;;;;;2.20;0.90;;;;;;;;;;5064803;28;20907;-77
2023/08/01 00:31:46;;;;;;;2.27;1.00;;;;;;;;;;5063017;28;20820;-77
2023/08/01 00:34:13;;;;;;;2.83;1.27;;;;;;;;;;5061936;28;20464;-78
2023/08/01 00:36:41;;;;;;;2.07;1.00;;;;;;;;;;5063503;28;20477;-77
2023/08/01 00:39:12;;;;;;;2.80;1.10;;;;;;;;;;5062265;28;20454;-78
2023/08/01 00:41:39;;;;;;;2.07;0.80;;;;;;;;;;5067836;28;20457;-78
2023/08/01 00:44:07;;;;;;;2.17;0.97;;;;;;;;;;5064085;28;20457;-77
2023/08/01 00:46:34;;;;;;;2.40;1.00;;;;;;;;;;5062142;28;20464;-77
2023/08/01 00:49:04;;;;;;;2.33;0.70;;;;;;;;;;5065703;28;20464;-78
2023/08/01 00:51:32;;;;;;;2.13;0.93;;;;;;;;;;5060784;28;20911;-78
2023/08/01 00:54:00;;;;;;;3.50;1.00;;;;;;;;;;5061745;28;20473;-77
2023/08/01 00:56:28;;;;;;;3.33;1.17;;;;;;;;;;5061937;28;20482;-77
2023/08/01 00:58:55;;;;;;;2.00;0.80;;;;;;;;;;5062658;28;20532;-78
2023/08/01 01:01:24;;;;;;;1.87;0.83;;;;;;;;;;5063356;28;20453;-78
2023/08/01 01:03:52;;;;;;;4.57;1.20;;;;;;;;;;5064367;28;20884;-78
2023/08/01 01:06:22;;;;;;;2.03;1.03;;;;;;;;;;5064364;28;20445;-78
2023/08/01 01:08:50;;;;;;;2.53;1.30;;;;;;;;;;5061900;28;20456;-78
2023/08/01 01:11:17;;;;;;;3.00;1.50;;;;;;;;;;5060352;28;20484;-77
2023/08/01 01:13:45;;;;;;;3.37;1.80;;;;;;;;;;5056380;28;20553;-77
2023/08/01 01:16:13;;;;;;;3.07;1.63;;;;;;;;;;5058113;28;20461;-78
2023/08/01 01:18:40;;;;;;;3.17;1.93;;;;;;;;;;5059640;28;20492;-79
2023/08/01 01:21:09;;;;;;;2.93;1.97;;;;;;;;;;5065402;28;20513;-79
2023/08/01 01:23:37;;;;;;;2.97;1.80;;;;;;;;;;5062998;28;20472;-79
2023/08/01 01:26:06;;;;;;;3.50;2.20;;;;;;;;;;5063490;28;20457;-78
2023/08/01 01:28:40;;;;;;;3.93;2.17;;;;;;;;;;5064216;28;20504;-79
2023/08/01 01:31:08;;;;;;;3.90;2.30;;;;;;;;;;5066614;28;20467;-79
2023/08/01 01:33:36;;;;;;;3.60;2.53;;;;;;;;;;5065889;28;20457;-79
2023/08/01 01:36:04;;;;;;;4.07;3.33;;;;;;;;;;5062442;28;20449;-79
2023/08/01 01:38:32;;;;;;;3.00;1.97;;;;;;;;;;5065539;28;20786;-79
2023/08/01 01:41:00;;;;;;;3.10;2.10;;;;;;;;;;5061950;28;20453;-79
2023/08/01 01:43:28;;;;;;;4.20;2.33;;;;;;;;;;5064058;28;20461;-78
2023/08/01 01:45:55;;;;;;;3.77;2.67;;;;;;;;;;5064208;28;20500;-79
2023/08/01 01:48:23;;;;;;;3.63;2.60;;;;;;;;;;5063105;28;20455;-78
2023/08/01 01:50:51;;;;;;;3.33;1.90;;;;;;;;;;5062861;28;20466;-79
2023/08/01 01:53:18;;;;;;;4.10;2.50;;;;;;;;;;5061923;28;20501;-79
2023/08/01 01:55:48;;;;;;;3.63;2.40;;;;;;;;;;5063315;28;20457;-79
2023/08/01 01:58:15;;;;;;;4.70;2.33;;;;;;;;;;5063245;28;20489;-77
2023/08/01 02:00:43;;;;;;;4.93;2.70;;;;;;;;;;5045179;28;20501;-77
2023/08/01 02:03:12;;;;;;;4.20;2.50;;;;;;;;;;5064171;28;20791;-77
2023/08/01 02:05:41;;;;;;;4.87;2.57;;;;;;;;;;5061689;28;20718;-78
2023/08/01 02:08:09;;;;;;;6.33;3.83;;;;;;;;;;5061981;28;20504;-77
2023/08/01 02:10:37;;;;;;;3.83;2.90;;;;;;;;;;5060413;28;20469;-77
2023/08/01 02:13:07;;;;;;;4.90;2.77;;;;;;;;;;5059175;28;20482;-77
2023/08/01 02:15:37;;;;;;;6.03;2.97;;;;;;;;;;5058336;28;20560;-78
2023/08/01 02:18:05;;;;;;;4.53;2.60;;;;;;;;;;5058781;28;20509;-78
2023/08/01 02:20:33;;;;;;;5.33;3.17;;;;;;;;;;5059971;28;20548;-78
2023/08/01 02:23:01;;;;;;;3.73;2.87;;;;;;;;;;5058106;28;20457;-78
2023/08/01 02:25:43;;;;;;;8.80;3.03;;;;;;;;;;5056915;28;20500;-78
2023/08/01 02:28:17;;;;;;;5.50;3.10;;;;;;;;;;5058516;28;20457;-77
2023/08/01 02:30:47;;;;;;;4.03;3.10;;;;;;;;;;5057786;28;20449;-77
2023/08/01 02:33:14;;;;;;;6.53;3.30;;;;;;;;;;5056552;28;20749;-78
2023/08/01 02:35:42;;;;;;;6.10;3.07;;;;;;;;;;5061479;28;20893;-78
2023/08/01 02:38:11;;;;;;;4.10;2.87;;;;;;;;;;5064322;28;20520;-78
2023/08/01 02:40:39;;;;;;;6.73;3.83;;;;;;;;;;5066512;28;20446;-78
2023/08/01 02:43:06;;;;;;;4.23;2.97;;;;;;;;;;5062377;28;20457;-78
2023/08/01 02:45:35;;;;;;;5.00;3.13;;;;;;;;;;5062905;28;20449;-80
2023/08/01 02:48:03;;;;;;;4.17;2.93;;;;;;;;;;5064368;28;20434;-78
2023/08/01 02:50:31;;;;;;;4.20;2.57;;;;;;;;;;5066578;28;20734;-78
2023/08/01 02:52:58;;;;;;;5.10;2.97;;;;;;;;;;5064129;28;20452;-78
2023/08/01 02:55:27;;;;;;;4.47;2.90;;;;;;;;;;5064277;28;20457;-78
2023/08/01 02:57:54;;;;;;;4.40;3.40;;;;;;;;;;5064492;28;21035;-78
2023/08/01 03:00:26;;;;;;;8.00;3.37;;;;;;;;;;5066076;28;20480;-77
2023/08/01 03:02:54;;;;;;;5.37;3.30;;;;;;;;;;5064622;28;20908;-78
2023/08/01 03:05:22;;;;;;;6.00;3.23;;;;;;;;;;5067941;28;20484;-78
2023/08/01 03:07:50;;;;;;;4.77;2.57;;;;;;;;;;5065357;28;20449;-78
2023/08/01 03:10:18;;;;;;;3.90;3.07;;;;;;;;;;5065727;28;20841;-77
2023/08/01 03:12:46;;;;;;;4.10;3.00;;;;;;;;;;5060275;28;20486;-77
2023/08/01 03:15:14;;;;;;;4.17;2.70;;;;;;;;;;5062399;28;20449;-78
2023/08/01 03:17:45;;;;;;;3.83;2.63;;;;;;;;;;5062732;28;20583;-76
2023/08/01 03:20:16;;;;;;;5.23;2.90;;;;;;;;;;5061350;28;20468;-78
2023/08/01 03:22:43;;;;;;;3.77;2.80;;;;;;;;;;5062343;28;20530;-77
2023/08/01 03:25:11;;;;;;;4.20;2.87;;;;;;;;;;5060647;28;20511;-77
2023/08/01 03:27:39;;;;;;;3.87;2.50;;;;;;;;;;5063600;28;20512;-77
2023/08/01 03:30:10;;;;;;;5.43;3.07;;;;;;;;;;5061980;28;20465;-78
2023/08/01 03:32:37;;;;;;;8.33;2.60;;;;;;;;;;5064892;28;20460;-77
2023/08/01 03:35:05;;;;;;;4.80;3.00;;;;;;;;;;5062376;28;20511;-78
2023/08/01 03:37:34;;;;;;;4.33;3.37;;;;;;;;;;5066361;28;20445;-77
2023/08/01 03:40:09;;;;;;;4.07;2.90;;;;;;;;;;5059878;28;20926;-78
2023/08/01 03:42:36;;;;;;;5.93;2.47;;;;;;;;;;5064893;28;20451;-78
2023/08/01 03:45:10;;;;;;;5.17;2.83;;;;;;;;;;5065906;28;20565;-78
2023/08/01 03:47:38;;;;;;;3.77;2.70;;;;;;;;;;5063168;28;20523;-78
2023/08/01 03:50:09;;;;;;;6.13;3.17;;;;;;;;;;5064155;28;20542;-78
2023/08/01 03:52:38;;;;;;;6.33;2.80;;;;;;;;;;5061409;28;20511;-77
2023/08/01 03:55:06;;;;;;;3.40;2.40;;;;;;;;;;5065407;28;20713;-77
2023/08/01 03:57:33;;;;;;;5.53;2.70;;;;;;;;;;5065232;28;20461;-77
2023/08/01 04:00:13;;;;;;;4.40;3.20;;;;;;;;;;5059688;28;20461;-77
2023/08/01 04:02:42;;;;;;;7.33;2.80;;;;;;;;;;5059405;28;20465;-77
2023/08/01 04:05:10;;;;;;;3.53;2.67;;;;;;;;;;5058541;28;20580;-77
2023/08/01 04:07:39;;;;;;;3.60;2.50;;;;;;;;;;5057792;28;20457;-77
2023/08/01 04:10:07;;;;;;;3.50;2.30;;;;;;;;;;5057180;28;20455;-77
2023/08/01 04:12:35;;;;;;;3.77;2.70;;;;;;;;;;5056448;28;20568;-77
2023/08/01 04:15:02;;;;;;;3.90;2.90;;;;;;;;;;5056064;28;20468;-77
2023/08/01 04:17:30;;;;;;;7.00;2.63;;;;;;;;;;5057531;28;20492;-77
2023/08/01 04:19:57;;;;;;;3.90;2.47;;;;;;;;;;5058127;28;20787;-77
2023/08/01 04:22:25;;;;;;;4.20;2.70;;;;;;;;;;5063072;28;20453;-77
2023/08/01 04:24:54;;;;;;;3.77;2.53;;;;;;;;;;5062217;28;20453;-77
2023/08/01 04:27:24;;;;;;;6.00;3.30;;;;;;;;;;5061948;28;20461;-78
2023/08/01 04:29:52;;;;;;;6.87;2.90;;;;;;;;;;5062782;28;20454;-79
2023/08/01 04:32:20;;;;;;;4.67;2.93;;;;;;;;;;5062195;28;20501;-78
2023/08/01 04:34:47;;;;;;;5.07;3.07;;;;;;;;;;5061462;28;20464;-78
2023/08/01 04:37:15;;;;;;;3.60;2.67;;;;;;;;;;5063685;28;20492;-78
2023/08/01 04:39:42;;;;;;;4.90;3.60;;;;;;;;;;5062496;28;20489;-78
2023/08/01 04:42:11;;;;;;;4.13;2.90;;;;;;;;;;5062857;28;20515;-78
2023/08/01 04:44:38;;;;;;;5.40;2.90;;;;;;;;;;5063507;28;20706;-78
2023/08/01 04:47:06;;;;;;;5.87;2.90;;;;;;;;;;5061115;28;20919;-77
2023/08/01 04:49:34;;;;;;;5.57;2.77;;;;;;;;;;5060170;28;20541;-77
2023/08/01 04:52:02;;;;;;;4.13;2.80;;;;;;;;;;5061048;28;20646;-77
2023/08/01 04:54:30;;;;;;;6.60;2.77;;;;;;;;;;5057823;28;20896;-77
2023/08/01 04:56:57;;;;;;;3.80;2.73;;;;;;;;;;5058092;28;20585;-77
2023/08/01 04:59:27;;;;;;;5.67;2.53;;;;;;;;;;5055560;28;20936;-77
2023/08/01 05:01:55;;;;;;;4.70;3.00;;;;;;;;;;5058942;28;20441;-77
2023/08/01 05:04:22;;;;;;;7.03;3.60;;;;;;;;;;5057640;28;20517;-78
2023/08/01 05:06:50;;;;;;;4.53;2.60;;;;;;;;;;5060743;28;20477;-78
2023/08/01 05:09:18;;;;;;;4.47;2.87;;;;;;;;;;5061343;28;20729;-78
2023/08/01 05:11:46;;;;;;;4.30;2.60;;;;;;;;;;5061681;28;20749;-78
2023/08/01 05:14:14;;;;;;;3.80;2.50;;;;;;;;;;5059538;28;20904;-78
2023/08/01 05:16:43;;;;;;;4.83;2.80;;;;;;;;;;5055491;28;20453;-77
2023/08/01 05:19:11;;;;;;;3.93;3.00;;;;;;;;;;5057249;28;20509;-77
2023/08/01 05:21:39;;;;;;;4.83;3.13;;;;;;;;;;5058150;28;20454;-78
2023/08/01 05:24:06;;;;;;;5.70;2.77;;;;;;;;;;5051170;28;20615;-76
2023/08/01 05:26:34;;;;;;;5.00;3.13;;;;;;;;;;5053641;28;20568;-76
2023/08/01 05:29:02;;;;;;;6.40;3.07;;;;;;;;;;5054118;28;20885;-76
2023/08/01 05:31:29;;;;;;;3.90;2.60;;;;;;;;;;5055069;28;20454;-77
2023/08/01 05:34:03;;;;;;;5.60;3.47;;;;;;;;;;5052728;28;20446;-78
2023/08/01 05:36:30;;;;;;;4.20;2.70;;;;;;;;;;5053716;28;20900;-77
2023/08/01 05:38:58;;;;;;;5.00;3.07;;;;;;;;;;5052268;28;20584;-79
2023/08/01 05:41:26;;;;;;;4.00;2.83;;;;;;;;;;5055919;28;20449;-76
2023/08/01 05:43:53;;;;;;;6.63;3.40;;;;;;;;;;5055819;28;20452;-77
2023/08/01 05:46:21;;;;;;;4.90;3.17;;;;;;;;;;5056335;28;20812;-77
2023/08/01 05:48:48;;;;;;;5.53;3.20;;;;;;;;;;5055365;28;20441;-79
2023/08/01 05:51:18;;;;;;;6.00;3.50;;;;;;;;;;5058499;28;20480;-77
2023/08/01 05:53:45;;;;;;;7.87;4.33;;;;;;;;;;5054846;28;20446;-79
2023/08/01 05:56:13;;;;;;;6.07;3.93;;;;;;;;;;5057519;28;20441;-78
2023/08/01 05:58:41;;;;;;;10.07;4.57;;;;;;;;;;5054121;28;20499;-78
2023/08/01 06:01:09;;;;;;;6.00;4.23;;;;;;;;;;5056150;28;20473;-76
2023/08/01 06:03:36;;;;;;;4.63;3.83;;;;;;;;;;5048175;28;20652;-75
2023/08/01 06:06:04;;;;;;;5.20;4.20;;;;;;;;;;5049888;28;20445;-76
2023/08/01 06:08:33;;;;;;;6.33;4.40;;;;;;;;;;5047071;28;20453;-77
2023/08/01 06:11:00;;;;;;;7.50;4.00;;;;;;;;;;5048797;28;20457;-75
2023/08/01 06:13:28;;;;;;;6.80;4.27;;;;;;;;;;5046745;28;20548;-77
2023/08/01 06:15:55;;;;;;;5.13;4.10;;;;;;;;;;5049872;28;20593;-78
2023/08/01 06:18:23;;;;;;;5.37;4.23;;;;;;;;;;5056161;28;20479;-79
2023/08/01 06:20:51;;;;;;;5.30;3.60;;;;;;;;;;5052971;28;20457;-77
2023/08/01 06:23:19;;;;;;;7.03;4.40;;;;;;;;;;5053959;28;20457;-77
2023/08/01 06:25:48;;;;;;;6.77;4.33;;;;;;;;;;5051836;28;20555;-77
2023/08/01 06:28:16;;;;;;;6.20;5.07;;;;;;;;;;5055538;28;20613;-78
2023/08/01 06:30:43;;;;;;;4.60;3.90;;;;;;;;;;5057971;28;20438;-77
2023/08/01 06:33:11;;;;;;;5.80;4.23;;;;;;;;;;5055618;28;20588;-78
2023/08/01 06:35:38;;;;;;;6.13;4.23;;;;;;;;;;5056183;28;20465;-79
2023/08/01 06:38:06;;;;;;;6.97;4.60;;;;;;;;;;5056787;28;20445;-78
2023/08/01 06:40:34;;;;;;;6.43;4.73;;;;;;;;;;5059448;28;20484;-78
2023/08/01 06:43:07;;;;;;;8.10;4.70;;;;;;;;;;5058774;28;20866;-78
2023/08/01 06:45:49;;;;;;;6.10;5.20;;;;;;;;;;5071645;22;20485;-74
2023/08/01 06:56:59;;;;;;;5.03;4.50;;;;;;;;;;5068581;28;20832;-74
2023/08/01 06:59:33;;;;;;;6.37;4.37;;;;;;;;;;5063452;28;20487;-73
2023/08/01 07:02:22;;;;;;;7.50;5.40;;;;;;;;;;5065995;28;20514;-74
2023/08/01 07:04:59;;;;;;;6.53;5.20;;;;;;;;;;5069712;28;20769;-73
2023/08/01 07:07:45;;;;;;;8.83;5.60;;;;;;;;;;5054014;28;20457;-75
2023/08/01 07:10:23;;;;;;;6.40;4.87;;;;;;;;;;5057092;28;20465;-72
2023/08/01 07:13:16;;;;;;;9.20;5.33;;;;;;;;;;5060418;28;20460;-72
2023/08/01 07:15:49;;;;;;;5.97;4.07;;;;;;;;;;5071876;28;20549;-74
2023/08/01 07:18:17;;;;;;;13.43;5.97;;;;;;;;;;5068514;28;20536;-74
2023/08/01 07:21:29;;;;;;;8.53;4.67;;;;;;;;;;5056057;28;20524;-75
2023/08/01 07:26:45;;;;;;;6.43;2.73;;;;;;;;;;5040495;28;20446;-75
2023/08/01 07:29:25;;;;;;;4.30;2.50;;;;;;;;;;5048757;28;20481;-77
2023/08/01 07:32:07;;;;;;;4.20;2.17;;;;;;;;;;5039192;28;20918;-77
2023/08/01 07:34:43;;;;;;;4.50;2.60;;;;;;;;;;5043620;28;20462;-76
2023/08/01 07:37:32;;;;;;;7.50;3.00;;;;;;;;;;5054178;28;20445;-76
2023/08/01 07:40:11;;;;;;;5.03;2.90;;;;;;;;;;5057860;28;20473;-76
2023/08/01 07:42:38;;;;;;;6.63;2.77;;;;;;;;;;5053620;22;20560;-78
2023/08/01 07:45:09;;;;;;;9.90;2.80;;;;;;;;;;5044334;28;20603;-78
2023/08/01 07:47:38;;;;;;;3.23;1.73;;;;;;;;;;5042201;28;20584;-78
2023/08/01 07:50:09;;;;;;;5.10;2.30;;;;;;;;;;5040494;28;20451;-78
2023/08/01 07:52:36;;;;;;;4.60;2.53;;;;;;;;;;5041481;28;20490;-78
2023/08/01 07:55:07;;;;;;;5.10;2.67;;;;;;;;;;5041060;28;20458;-78
2023/08/01 07:57:35;;;;;;;5.77;3.43;;;;;;;;;;5041829;28;20494;-78
2023/08/01 08:00:07;;;;;;;5.97;2.50;;;;;;;;;;5039914;28;20551;-78
2023/08/01 08:02:35;;;;;;;6.60;2.90;;;;;;;;;;5034493;28;20462;-79
2023/08/01 08:05:05;;;;;;;4.23;2.17;;;;;;;;;;5038060;28;20486;-77
2023/08/01 08:07:33;;;;;;;7.57;2.87;;;;;;;;;;5042224;28;20469;-78
2023/08/01 08:10:05;;;;;;;5.93;2.47;;;;;;;;;;5044294;28;20508;-78
2023/08/01 08:12:32;;;;;;;4.83;2.30;;;;;;;;;;5036927;28;20459;-78
2023/08/01 08:15:00;;;;;;;5.63;2.80;;;;;;;;;;5029982;28;20450;-77
2023/08/01 08:17:28;;;;;;;9.43;2.97;;;;;;;;;;5035937;28;20870;-78
2023/08/01 08:19:55;;;;;;;7.73;2.90;;;;;;;;;;5038876;28;20501;-78
2023/08/01 08:22:25;;;;;;;5.00;2.93;;;;;;;;;;5041844;28;20446;-78
2023/08/01 08:24:52;;;;;;;5.03;3.30;;;;;;;;;;5039748;28;20446;-78
2023/08/01 08:27:20;;;;;;;6.07;3.20;;;;;;;;;;5035186;28;20723;-77
2023/08/01 08:29:50;;;;;;;5.73;2.73;;;;;;;;;;5033766;28;20802;-79
2023/08/01 08:32:18;;;;;;;4.20;2.50;;;;;;;;;;5041414;28;20458;-78
2023/08/01 08:34:46;;;;;;;5.10;3.10;;;;;;;;;;5041540;28;20457;-78
2023/08/01 08:37:13;;;;;;;6.20;3.80;;;;;;;;;;5038915;28;20450;-78
2023/08/01 08:39:47;;;;;;;6.43;3.50;;;;;;;;;;5030356;28;20487;-77
2023/08/01 08:42:23;;;;;;;8.13;3.47;;;;;;;;;;5030100;28;20807;-77
2023/08/01 08:44:57;;;;;;;7.17;2.97;;;;;;;;;;5033879;28;20486;-78
2023/08/01 08:47:26;;;;;;;7.53;3.47;;;;;;;;;;5039845;28;20466;-77
2023/08/01 08:49:57;;;;;;;5.87;3.63;;;;;;;;;;5028790;28;20536;-77
2023/08/01 08:52:48;;;;;;;5.10;3.43;;;;;;;;;;5024006;28;20467;-77
2023/08/01 08:55:27;;;;;;;9.20;4.53;;;;;;;;;;5025100;28;20451;-77
2023/08/01 08:57:55;;;;;;;5.70;3.20;;;;;;;;;;5027708;28;20473;-77
2023/08/01 09:00:28;;;;;;;7.23;3.63;;;;;;;;;;5029480;28;20940;-77
2023/08/01 09:02:56;;;;;;;5.00;3.50;;;;;;;;;;5023860;28;20527;-79
2023/08/01 09:05:24;;;;;;;5.57;2.70;;;;;;;;;;5026514;28;20446;-77
2023/08/01 09:07:57;;;;;;;5.77;3.40;;;;;;;;;;5042638;28;20545;-77
2023/08/01 09:10:26;;;;;;;3.97;3.17;;;;;;;;;;5033032;28;20510;-78
2023/08/01 09:12:54;;;;;;;9.90;4.20;;;;;;;;;;5023716;28;20455;-77
2023/08/01 09:15:28;;;;;;;5.47;3.30;;;;;;;;;;5022382;28;20471;-77
2023/08/01 09:18:00;;;;;;;4.37;3.20;;;;;;;;;;5024416;28;20450;-78
2023/08/01 09:20:32;;;;;;;6.50;3.30;;;;;;;;;;5024491;28;20463;-76
2023/08/01 09:23:00;;;;;;;7.87;3.93;;;;;;;;;;5025189;28;20463;-77
2023/08/01 09:25:34;;;;;;;3.83;2.60;;;;;;;;;;5030866;28;20460;-78
2023/08/01 09:28:01;;;;;;;7.23;3.00;;;;;;;;;;5030907;28;20454;-78
2023/08/01 09:30:29;;;;;;;6.07;3.13;;;;;;;;;;5032898;28;20462;-77
2023/08/01 09:32:57;;;;;;;4.10;2.70;;;;;;;;;;5024466;28;20471;-78
2023/08/01 09:35:26;;;;;;;6.13;2.70;;;;;;;;;;5025656;28;20743;-78
2023/08/01 09:37:54;;;;;;;5.40;3.27;;;;;;;;;;5038721;28;20458;-77
2023/08/01 09:40:23;;;;;;;7.13;3.90;;;;;;;;;;5026886;28;20479;-77
2023/08/01 09:42:52;;;;;;;7.57;3.53;;;;;;;;;;5017084;28;20482;-78
2023/08/01 09:45:21;;;;;;;3.00;2.10;;;;;;;;;;5029382;28;20459;-77
2023/08/01 09:47:49;;;;;;;8.30;2.07;;;;;;;;;;5022521;28;20463;-78
2023/08/01 09:50:24;;;;;;;3.50;2.10;;;;;;;;;;5019573;28;20562;-78
2023/08/01 09:52:53;;;;;;;4.30;1.60;;;;;;;;;;5023084;28;20463;-77
2023/08/01 09:55:24;;;;;;;2.97;1.93;;;;;;;;;;5020511;28;20447;-78
2023/08/01 09:57:53;;;;;;;3.17;1.20;;;;;;;;;;5016927;28;20462;-77
2023/08/01 10:00:21;;;;;;;3.00;1.30;;;;;;;;;;5016030;28;20483;-78
2023/08/01 10:02:49;;;;;;;2.20;0.90;;;;;;;;;;5026046;28;20494;-79
2023/08/01 10:05:19;;;;;;;5.60;5.03;;;;;;;;;;5019014;28;20513;-77
2023/08/01 10:07:47;;;;;;;2.43;1.30;;;;;;;;;;5021929;28;20467;-77
2023/08/01 10:10:21;;;;;;;3.10;1.57;;;;;;;;;;5030930;28;20469;-77
2023/08/01 10:12:50;;;;;;;2.97;1.30;;;;;;;;;;5027205;28;20462;-78
2023/08/01 10:15:20;;;;;;;3.07;1.23;;;;;;;;;;5025423;28;20957;-78
2023/08/01 10:17:48;;;;;;;3.57;1.60;;;;;;;;;;5038867;28;20542;-79
2023/08/01 10:20:20;;;;;;;2.20;1.10;;;;;;;;;;5040965;28;20497;-79
2023/08/01 10:22:48;;;;;;;3.43;1.43;;;;;;;;;;5025707;28;20469;-78
2023/08/01 10:25:17;;;;;;;3.67;1.20;;;;;;;;;;5020180;28;20933;-78
2023/08/01 10:27:45;;;;;;;3.77;1.00;;;;;;;;;;5020494;28;20483;-78
2023/08/01 10:30:20;;;;;;;3.53;1.20;;;;;;;;;;5020800;28;20457;-78
2023/08/01 10:32:56;;;;;;;3.60;1.33;;;;;;;;;;5036857;28;20465;-78
2023/08/01 10:35:33;;;;;;;2.90;1.00;;;;;;;;;;5042040;28;20478;-79
2023/08/01 10:38:19;;;;;;;3.63;1.20;;;;;;;;;;5034343;28;20475;-79
2023/08/01 10:40:51;;;;;;;3.13;1.50;;;;;;;;;;5032246;28;20486;-78
2023/08/01 10:43:22;;;;;;;4.50;1.10;;;;;;;;;;5029298;28;20476;-77
2023/08/01 10:45:50;;;;;;;3.50;1.20;;;;;;;;;;5028873;28;20466;-77
2023/08/01 10:48:19;;;;;;;4.03;1.77;;;;;;;;;;5029215;28;20471;-78
2023/08/01 10:50:57;;;;;;;2.80;1.10;;;;;;;;;;5025559;28;20463;-78
2023/08/01 10:53:25;;;;;;;3.57;1.50;;;;;;;;;;5023275;28;21091;-78
2023/08/01 10:55:54;;;;;;;3.10;1.20;;;;;;;;;;5035383;28;20618;-79
2023/08/01 10:58:29;;;;;;;3.73;1.20;;;;;;;;;;5019722;28;20459;-78
2023/08/01 11:01:00;;;;;;;3.10;1.03;;;;;;;;;;5027676;28;20536;-77
2023/08/01 11:03:37;;;;;;;3.30;1.10;;;;;;;;;;5024700;28;20458;-77
2023/08/01 11:06:08;;;;;;;3.50;1.50;;;;;;;;;;5027752;28;20459;-78
2023/08/01 11:08:39;;;;;;;4.10;1.10;;;;;;;;;;5022693;28;20439;-78
2023/08/01 11:11:07;;;;;;;3.30;1.10;;;;;;;;;;5025333;28;20768;-77
2023/08/01 11:13:36;;;;;;;4.13;1.13;;;;;;;;;;5026418;28;20439;-77
2023/08/01 11:16:05;;;;;;;2.90;1.00;;;;;;;;;;5034400;28;20485;-78
2023/08/01 11:18:45;;;;;;;2.90;0.90;;;;;;;;;;5031370;28;20615;-78
2023/08/01 11:21:14;;;;;;;3.17;1.03;;;;;;;;;;5030332;28;20478;-77
2023/08/01 11:23:42;;;;;;;2.70;0.97;;;;;;;;;;5042301;28;20561;-79
2023/08/01 11:26:09;;;;;;;2.87;0.90;;;;;;;;;;5029241;28;20470;-77
2023/08/01 11:28:38;;;;;;;6.43;1.60;;;;;;;;;;5038219;28;20999;-77
2023/08/01 11:31:14;;;;;;;3.30;0.93;;;;;;;;;;5031536;28;20459;-77
2023/08/01 11:40:33;;;;;;;3.53;1.33;;;;;;;;;;5031050;28;20193;-74
2023/08/01 11:43:12;;;;;;;3.50;1.40;;;;;;;;;;5084179;28;20451;-75
2023/08/01 11:45:54;;;;;;;3.73;1.00;;;;;;;;;;5099291;28;20495;-74
2023/08/01 11:48:58;;;;;;;;;;;;;;;;;;;;;
2023/08/01 11:51:45;;;;;;;3.43;1.10;;;;;;;;;;5103760;28;20439;-73
2023/08/01 11:54:24;;;;;;;2.97;1.20;;;;;;;;;;5088939;28;20497;-73
2023/08/01 12:03:46;;;;;;;4.03;1.50;;;;;;;;;;5046122;28;20453;-76
2023/08/01 12:11:10;;;;;;;6.50;1.33;;;;;;;;;;5081367;28;20293;-74
2023/08/01 12:16:29;;;;;;;3.03;0.90;;;;;;;;;;5069679;28;20507;-75
2023/08/01 12:19:13;;;;;;;3.90;0.93;;;;;;;;;;5068689;28;20468;-73
2023/08/01 12:22:07;;;;;;;4.00;1.20;;;;;;;;;;5071050;28;20482;-74
2023/08/01 12:28:07;;;;;;;;;;;;;;;;;;;;;
2023/08/01 12:42:12;;;;;;;4.13;1.37;;;;;;;;;;5085433;28;20484;-76
2023/08/01 13:05:33;;;;;;;3.10;1.90;;;;;;;;;;5024338;28;20462;-74
2023/08/01 13:08:03;;;;;;;7.83;1.80;;;;;;;;;;5077145;28;20490;-76
2023/08/01 13:13:43;;;;;;;5.10;1.43;;;;;;;;;;5041776;28;20658;-75
2023/08/01 13:24:16;;;;;;;4.93;1.70;;;;;;;;;;5068880;28;20915;-74
2023/08/01 13:30:27;;;;;;;;;;;;;;;;;;;;;
2023/08/01 13:36:25;;;;;;;3.40;1.70;;;;;;;;;;5049442;28;20651;-73
2023/08/01 13:38:54;;;;;;;3.20;1.50;;;;;;;;;;5036819;28;20446;-74
2023/08/01 13:41:45;;;;;;;3.17;1.50;;;;;;;;;;5081843;28;20784;-73
2023/08/01 13:44:35;;;;;;;3.40;2.20;;;;;;;;;;5092542;28;20539;-74
2023/08/01 13:47:14;;;;;;;3.73;1.57;;;;;;;;;;5082097;28;20457;-75
2023/08/01 13:53:45;;;;;;;;;;;;;;;;;;;;;
2023/08/01 14:08:13;;;;;;;2.87;1.20;;;;;;;;;;5045135;28;20562;-76
2023/08/01 14:16:54;;;;;;;1.90;0.90;;;;;;;;;;5110673;28;20493;-77
2023/08/01 14:28:54;;;;;;;;;;;;;;;;;;;;;
2023/08/01 14:31:46;;;;;;;2.83;1.40;;;;;;;;;;5101252;28;20456;-74
2023/08/01 14:34:33;;;;;;;2.60;1.07;;;;;;;;;;5092636;28;20440;-73
2023/08/01 14:37:25;;;;;;;3.83;1.00;;;;;;;;;;5086037;28;20572;-75
2023/08/01 14:40:21;;;;;;;2.77;1.40;;;;;;;;;;5092253;28;20546;-75
2023/08/01 14:46:12;;;;;;;3.93;1.00;;;;;;;;;;5078874;28;20552;-75
2023/08/01 14:51:57;;;;;;;;;;;;;;;;;;;;;
2023/08/01 14:57:37;;;;;;;4.53;1.20;;;;;;;;;;5077616;28;20480;-78
2023/08/01 15:00:49;;;;;;;;;;;;;;;;;;;;;
2023/08/01 15:06:08;;;;;;;5.13;1.30;;;;;;;;;;5101979;28;20489;-75
2023/08/01 15:11:54;;;;;;;2.80;1.27;;;;;;;;;;5112624;28;20427;-75
2023/08/01 15:14:42;;;;;;;4.20;2.63;;;;;;;;;;5117214;28;20486;-76
2023/08/01 15:17:12;;;;;;;2.33;1.23;;;;;;;;;;5115506;28;20478;-77
2023/08/01 15:55:16;;;;;;;3.07;0.93;;;;;;;;;;5072731;28;20492;-75
2023/08/01 16:01:00;;;;;;;7.70;1.43;;;;;;;;;;5084500;28;20576;-76
2023/08/01 16:06:50;;;;;;;5.00;2.40;;;;;;;;;;5082531;28;20447;-78
2023/08/01 16:15:54;;;;;;;3.57;1.27;;;;;;;;;;5048507;28;20622;-76
2023/08/01 16:22:20;;;;;;;3.20;1.17;;;;;;;;;;5113552;28;20804;-75
2023/08/01 16:25:14;;;;;;;4.67;1.70;;;;;;;;;;5091940;28;20550;-75
2023/08/01 16:33:02;;;;;;;2.47;1.13;;;;;;;;;;5124818;27;20199;-76
2023/08/01 16:52:36;;;;;;;4.27;1.40;;;;;;;;;;5030996;28;20442;-76
2023/08/01 16:58:18;;;;;;;6.10;1.97;;;;;;;;;;5101799;28;20457;-75
2023/08/01 17:04:29;;;;;;;;;;;;;;;;;;;;;
2023/08/01 17:07:10;;;;;;;4.33;1.30;;;;;;;;;;5066586;28;20443;-76
2023/08/01 17:16:15;;;;;;;4.00;1.73;;;;;;;;;;4990362;28;20935;-75
2023/08/01 17:18:52;;;;;;;3.50;1.30;;;;;;;;;;5084487;28;20483;-75
2023/08/01 17:31:33;;;;;;;;;;;;;;;;;;;;;
2023/08/01 17:42:55;;;;;;;6.77;1.50;;;;;;;;;;5117159;22;20801;-80
2023/08/01 17:45:22;;;;;;;2.40;1.20;;;;;;;;;;5102318;28;20478;-78
2023/08/01 17:47:53;;;;;;;5.17;1.57;;;;;;;;;;5100502;28;20464;-79
2023/08/01 17:50:56;;;;;;;3.10;1.40;;;;;;;;;;5088075;28;20488;-78
2023/08/01 17:53:26;;;;;;;4.47;1.80;;;;;;;;;;5136376;27;20793;-80
2023/08/01 17:55:55;;;;;;;1.90;1.00;;;;;;;;;;5144874;27;20923;-78
2023/08/01 17:58:23;;;;;;;6.83;2.10;;;;;;;;;;5140251;27;20530;-78
2023/08/01 18:00:51;;;;;;;3.40;1.87;;;;;;;;;;5147635;27;20473;-78
2023/08/01 18:03:21;;;;;;;4.50;1.93;;;;;;;;;;5137521;27;20462;-77
2023/08/01 18:05:48;;;;;;;3.93;1.80;;;;;;;;;;5124167;27;20545;-79
2023/08/01 18:08:16;;;;;;;4.43;1.50;;;;;;;;;;5141440;27;20441;-78
2023/08/01 18:10:44;;;;;;;5.10;1.57;;;;;;;;;;5135220;27;20450;-78
2023/08/01 18:13:15;;;;;;;4.70;1.70;;;;;;;;;;5149385;27;20454;-79
2023/08/01 18:15:43;;;;;;;3.20;1.30;;;;;;;;;;5150096;27;20458;-79
2023/08/01 18:18:10;;;;;;;5.17;1.60;;;;;;;;;;5140539;27;20779;-78
2023/08/01 18:20:38;;;;;;;4.03;1.33;;;;;;;;;;5127505;27;20453;-78
2023/08/01 18:23:06;;;;;;;2.60;1.70;;;;;;;;;;5145006;27;20494;-78
2023/08/01 18:25:37;;;;;;;3.23;1.67;;;;;;;;;;5133874;27;20470;-78
2023/08/01 18:28:05;;;;;;;7.90;2.47;;;;;;;;;;5126891;27;20760;-78
2023/08/01 18:30:33;;;;;;;3.80;1.63;;;;;;;;;;5143578;27;20465;-79
2023/08/01 18:33:06;;;;;;;4.03;1.47;;;;;;;;;;5127187;27;21145;-77
2023/08/01 18:35:42;;;;;;;4.10;1.57;;;;;;;;;;5143157;27;20486;-78
2023/08/01 18:38:10;;;;;;;3.43;1.40;;;;;;;;;;5143283;27;20480;-78
2023/08/01 18:40:38;;;;;;;2.27;0.93;;;;;;;;;;5143960;27;20461;-81
2023/08/01 18:43:06;;;;;;;2.50;1.37;;;;;;;;;;5135668;27;20462;-80
2023/08/01 18:45:36;;;;;;;2.83;1.33;;;;;;;;;;5143190;27;20438;-80
2023/08/01 18:48:09;;;;;;;3.43;1.70;;;;;;;;;;5136189;27;20450;-79
2023/08/01 18:50:38;;;;;;;3.67;1.87;;;;;;;;;;5154454;27;20457;-79
2023/08/01 18:53:06;;;;;;;4.20;1.80;;;;;;;;;;5148500;27;20515;-80
2023/08/01 18:55:42;;;;;;;4.00;1.67;;;;;;;;;;5147473;27;20455;-79
2023/08/01 18:58:21;;;;;;;3.37;1.80;;;;;;;;;;5150236;27;20485;-80
2023/08/01 19:00:59;;;;;;;7.80;1.77;;;;;;;;;;5138893;27;20463;-80
2023/08/01 19:03:30;;;;;;;3.87;1.90;;;;;;;;;;5142112;27;20454;-79
2023/08/01 19:06:01;;;;;;;2.90;1.50;;;;;;;;;;5145235;27;20454;-80
2023/08/01 19:08:30;;;;;;;5.20;1.77;;;;;;;;;;5147363;27;20870;-80
2023/08/01 19:11:00;;;;;;;2.20;1.17;;;;;;;;;;5141610;27;20494;-80
2023/08/01 19:16:24;;;;;;;2.63;1.70;;;;;;;;;;5143198;27;20479;-80
2023/08/01 19:25:33;;;;;;;2.70;1.40;;;;;;;;;;5144801;27;20534;-80